sensor_id;sensor_type;location;lat;lon;timestamp;P1;durP1;ratioP1;P2;durP2;ratioP2
56943;SDS011;42848;42.524;12.052;2022-10-01T00:00:57;5.53;;;2.45;;
56943;SDS011;42848;42.524;12.052;2022-10-01T00:03:25;6.00;;;2.40;;
56943;SDS011;42848;42.524;12.052;2022-10-01T00:08:29;6.50;;;2.97;;
56943;SDS011;42848;42.524;12.052;2022-10-01T00:10:56;5.22;;;2.67;;
56943;SDS011;42848;42.524;12.052;2022-10-01T00:13:26;6.75;;;2.80;;
56943;SDS011;42848;42.524;12.052;2022-10-01T00:15:53;9.43;;;3.20;;
56943;SDS011;42848;42.524;12.052;2022-10-01T00:18:19;5.57;;;2.80;;
56943;SDS011;42848;42.524;12.052;2022-10-01T00:20:44;6.47;;;2.63;;
56943;SDS011;42848;42.524;12.052;2022-10-01T00:23:11;6.03;;;2.92;;
56943;SDS011;42848;42.524;12.052;2022-10-01T00:25:37;6.75;;;3.40;;
56943;SDS011;42848;42.524;12.052;2022-10-01T00:28:04;10.90;;;3.47;;
56943;SDS011;42848;42.524;12.052;2022-10-01T00:30:29;7.97;;;3.05;;
56943;SDS011;42848;42.524;12.052;2022-10-01T00:32:55;6.88;;;3.30;;
56943;SDS011;42848;42.524;12.052;2022-10-01T00:35:21;9.90;;;3.22;;
56943;SDS011;42848;42.524;12.052;2022-10-01T00:37:47;7.38;;;3.25;;
56943;SDS011;42848;42.524;12.052;2022-10-01T00:40:16;9.10;;;3.42;;
56943;SDS011;42848;42.524;12.052;2022-10-01T00:42:44;6.50;;;3.70;;
56943;SDS011;42848;42.524;12.052;2022-10-01T00:45:13;4.72;;;3.50;;
56943;SDS011;42848;42.524;12.052;2022-10-01T00:47:41;7.95;;;3.80;;
56943;SDS011;42848;42.524;12.052;2022-10-01T00:50:41;8.05;;;3.92;;
56943;SDS011;42848;42.524;12.052;2022-10-01T00:53:04;9.70;;;3.50;;
56943;SDS011;42848;42.524;12.052;2022-10-01T00:55:39;6.72;;;3.40;;
56943;SDS011;42848;42.524;12.052;2022-10-01T00:58:08;7.20;;;3.28;;
56943;SDS011;42848;42.524;12.052;2022-10-01T01:00:36;7.88;;;3.22;;
56943;SDS011;42848;42.524;12.052;2022-10-01T01:03:04;6.53;;;3.20;;
56943;SDS011;42848;42.524;12.052;2022-10-01T01:05:30;8.15;;;3.63;;
56943;SDS011;42848;42.524;12.052;2022-10-01T01:07:56;5.78;;;3.67;;
56943;SDS011;42848;42.524;12.052;2022-10-01T01:10:29;6.28;;;3.67;;
56943;SDS011;42848;42.524;12.052;2022-10-01T01:13:06;7.68;;;3.88;;
56943;SDS011;42848;42.524;12.052;2022-10-01T01:16:38;7.93;;;4.05;;
56943;SDS011;42848;42.524;12.052;2022-10-01T01:18:49;8.65;;;4.10;;
56943;SDS011;42848;42.524;12.052;2022-10-01T01:21:29;5.63;;;3.95;;
56943;SDS011;42848;42.524;12.052;2022-10-01T01:26:58;6.38;;;4.10;;
56943;SDS011;42848;42.524;12.052;2022-10-01T01:29:45;7.18;;;4.05;;
56943;SDS011;42848;42.524;12.052;2022-10-01T01:32:33;5.93;;;4.00;;
56943;SDS011;42848;42.524;12.052;2022-10-01T01:35:04;5.32;;;3.80;;
56943;SDS011;42848;42.524;12.052;2022-10-01T01:37:37;6.88;;;3.78;;
56943;SDS011;42848;42.524;12.052;2022-10-01T01:40:16;5.68;;;3.78;;
56943;SDS011;42848;42.524;12.052;2022-10-01T01:42:44;6.03;;;3.85;;
56943;SDS011;42848;42.524;12.052;2022-10-01T01:45:15;6.47;;;3.53;;
56943;SDS011;42848;42.524;12.052;2022-10-01T01:47:45;6.05;;;3.47;;
56943;SDS011;42848;42.524;12.052;2022-10-01T01:50:12;8.35;;;4.00;;
56943;SDS011;42848;42.524;12.052;2022-10-01T01:52:40;5.72;;;3.65;;
56943;SDS011;42848;42.524;12.052;2022-10-01T01:55:07;11.32;;;3.85;;
56943;SDS011;42848;42.524;12.052;2022-10-01T01:57:41;7.95;;;3.53;;
56943;SDS011;42848;42.524;12.052;2022-10-01T02:00:08;7.43;;;3.45;;
56943;SDS011;42848;42.524;12.052;2022-10-01T02:02:36;5.45;;;3.10;;
56943;SDS011;42848;42.524;12.052;2022-10-01T02:05:05;7.00;;;3.17;;
56943;SDS011;42848;42.524;12.052;2022-10-01T02:10:39;7.35;;;3.00;;
56943;SDS011;42848;42.524;12.052;2022-10-01T02:13:19;5.80;;;2.88;;
56943;SDS011;42848;42.524;12.052;2022-10-01T02:21:30;6.57;;;2.85;;
56943;SDS011;42848;42.524;12.052;2022-10-01T02:24:06;4.57;;;2.78;;
56943;SDS011;42848;42.524;12.052;2022-10-01T02:26:40;5.68;;;2.90;;
56943;SDS011;42848;42.524;12.052;2022-10-01T02:29:11;6.55;;;3.05;;
56943;SDS011;42848;42.524;12.052;2022-10-01T02:31:41;7.80;;;3.00;;
56943;SDS011;42848;42.524;12.052;2022-10-01T02:34:07;3.95;;;3.00;;
56943;SDS011;42848;42.524;12.052;2022-10-01T02:36:34;5.93;;;2.75;;
56943;SDS011;42848;42.524;12.052;2022-10-01T02:39:05;5.60;;;2.88;;
56943;SDS011;42848;42.524;12.052;2022-10-01T02:41:35;5.05;;;2.78;;
56943;SDS011;42848;42.524;12.052;2022-10-01T02:44:14;4.78;;;2.63;;
56943;SDS011;42848;42.524;12.052;2022-10-01T02:46:54;5.43;;;2.90;;
56943;SDS011;42848;42.524;12.052;2022-10-01T02:49:31;5.20;;;3.10;;
56943;SDS011;42848;42.524;12.052;2022-10-01T02:51:59;5.38;;;2.78;;
56943;SDS011;42848;42.524;12.052;2022-10-01T02:54:56;4.68;;;2.60;;
56943;SDS011;42848;42.524;12.052;2022-10-01T02:57:25;4.82;;;2.80;;
56943;SDS011;42848;42.524;12.052;2022-10-01T02:59:55;3.92;;;2.55;;
56943;SDS011;42848;42.524;12.052;2022-10-01T03:02:27;4.10;;;2.53;;
56943;SDS011;42848;42.524;12.052;2022-10-01T03:04:55;4.45;;;2.40;;
56943;SDS011;42848;42.524;12.052;2022-10-01T03:07:22;5.13;;;2.88;;
56943;SDS011;42848;42.524;12.052;2022-10-01T03:09:48;4.68;;;2.72;;
56943;SDS011;42848;42.524;12.052;2022-10-01T03:12:15;4.70;;;2.75;;
56943;SDS011;42848;42.524;12.052;2022-10-01T03:14:45;6.05;;;2.90;;
56943;SDS011;42848;42.524;12.052;2022-10-01T03:17:11;5.07;;;2.78;;
56943;SDS011;42848;42.524;12.052;2022-10-01T03:19:38;10.35;;;8.02;;
56943;SDS011;42848;42.524;12.052;2022-10-01T03:22:04;7.13;;;4.70;;
56943;SDS011;42848;42.524;12.052;2022-10-01T03:24:31;6.28;;;3.22;;
56943;SDS011;42848;42.524;12.052;2022-10-01T03:26:57;9.20;;;3.60;;
56943;SDS011;42848;42.524;12.052;2022-10-01T03:29:23;7.82;;;3.42;;
56943;SDS011;42848;42.524;12.052;2022-10-01T03:31:50;8.27;;;3.50;;
56943;SDS011;42848;42.524;12.052;2022-10-01T03:34:16;5.50;;;3.28;;
56943;SDS011;42848;42.524;12.052;2022-10-01T03:36:42;6.20;;;3.35;;
56943;SDS011;42848;42.524;12.052;2022-10-01T03:39:07;5.47;;;3.25;;
56943;SDS011;42848;42.524;12.052;2022-10-01T03:41:33;6.32;;;3.33;;
56943;SDS011;42848;42.524;12.052;2022-10-01T03:43:59;6.22;;;3.35;;
56943;SDS011;42848;42.524;12.052;2022-10-01T03:46:25;9.10;;;3.30;;
56943;SDS011;42848;42.524;12.052;2022-10-01T03:48:50;9.65;;;3.17;;
56943;SDS011;42848;42.524;12.052;2022-10-01T03:51:17;5.47;;;3.20;;
56943;SDS011;42848;42.524;12.052;2022-10-01T03:53:45;5.40;;;2.92;;
56943;SDS011;42848;42.524;12.052;2022-10-01T03:56:13;7.82;;;3.20;;
56943;SDS011;42848;42.524;12.052;2022-10-01T03:58:40;7.07;;;2.88;;
56943;SDS011;42848;42.524;12.052;2022-10-01T04:01:05;8.25;;;2.85;;
56943;SDS011;42848;42.524;12.052;2022-10-01T04:03:31;8.20;;;3.03;;
56943;SDS011;42848;42.524;12.052;2022-10-01T04:05:57;3.97;;;2.83;;
56943;SDS011;42848;42.524;12.052;2022-10-01T04:08:22;8.65;;;2.97;;
56943;SDS011;42848;42.524;12.052;2022-10-01T04:10:48;12.43;;;2.80;;
56943;SDS011;42848;42.524;12.052;2022-10-01T04:13:15;4.70;;;2.90;;
56943;SDS011;42848;42.524;12.052;2022-10-01T04:15:41;11.98;;;2.70;;
56943;SDS011;42848;42.524;12.052;2022-10-01T04:18:07;11.15;;;2.85;;
56943;SDS011;42848;42.524;12.052;2022-10-01T04:20:33;14.07;;;2.70;;
56943;SDS011;42848;42.524;12.052;2022-10-01T04:23:01;36.28;;;3.40;;
56943;SDS011;42848;42.524;12.052;2022-10-01T04:25:30;16.08;;;2.88;;
56943;SDS011;42848;42.524;12.052;2022-10-01T04:28:00;8.40;;;2.28;;
56943;SDS011;42848;42.524;12.052;2022-10-01T04:30:30;13.60;;;2.50;;
56943;SDS011;42848;42.524;12.052;2022-10-01T04:32:57;8.07;;;2.15;;
56943;SDS011;42848;42.524;12.052;2022-10-01T04:35:24;12.68;;;2.47;;
56943;SDS011;42848;42.524;12.052;2022-10-01T04:37:58;11.38;;;2.22;;
56943;SDS011;42848;42.524;12.052;2022-10-01T04:40:30;14.50;;;2.60;;
56943;SDS011;42848;42.524;12.052;2022-10-01T04:42:59;18.35;;;2.63;;
56943;SDS011;42848;42.524;12.052;2022-10-01T04:45:28;11.60;;;2.50;;
56943;SDS011;42848;42.524;12.052;2022-10-01T04:47:55;10.88;;;2.50;;
56943;SDS011;42848;42.524;12.052;2022-10-01T04:50:22;12.55;;;2.75;;
56943;SDS011;42848;42.524;12.052;2022-10-01T04:52:50;5.90;;;2.22;;
56943;SDS011;42848;42.524;12.052;2022-10-01T04:55:16;14.38;;;2.33;;
56943;SDS011;42848;42.524;12.052;2022-10-01T04:57:43;12.65;;;5.82;;
56943;SDS011;42848;42.524;12.052;2022-10-01T05:00:11;10.40;;;3.45;;
56943;SDS011;42848;42.524;12.052;2022-10-01T05:02:38;10.98;;;2.53;;
56943;SDS011;42848;42.524;12.052;2022-10-01T05:05:05;14.10;;;2.35;;
56943;SDS011;42848;42.524;12.052;2022-10-01T05:07:32;8.00;;;2.70;;
56943;SDS011;42848;42.524;12.052;2022-10-01T05:09:59;12.93;;;2.70;;
56943;SDS011;42848;42.524;12.052;2022-10-01T05:12:26;7.55;;;2.35;;
56943;SDS011;42848;42.524;12.052;2022-10-01T05:14:52;14.73;;;2.60;;
56943;SDS011;42848;42.524;12.052;2022-10-01T05:17:19;15.80;;;2.33;;
56943;SDS011;42848;42.524;12.052;2022-10-01T05:19:45;9.13;;;1.92;;
56943;SDS011;42848;42.524;12.052;2022-10-01T05:22:12;10.90;;;2.30;;
56943;SDS011;42848;42.524;12.052;2022-10-01T05:24:38;10.10;;;2.10;;
56943;SDS011;42848;42.524;12.052;2022-10-01T05:27:05;7.55;;;2.20;;
56943;SDS011;42848;42.524;12.052;2022-10-01T05:29:34;8.05;;;2.15;;
56943;SDS011;42848;42.524;12.052;2022-10-01T05:32:00;10.30;;;2.63;;
56943;SDS011;42848;42.524;12.052;2022-10-01T05:34:26;11.35;;;2.42;;
56943;SDS011;42848;42.524;12.052;2022-10-01T05:36:51;8.52;;;2.45;;
56943;SDS011;42848;42.524;12.052;2022-10-01T05:39:17;8.32;;;3.08;;
56943;SDS011;42848;42.524;12.052;2022-10-01T05:41:43;6.43;;;2.70;;
56943;SDS011;42848;42.524;12.052;2022-10-01T05:44:08;6.43;;;2.90;;
56943;SDS011;42848;42.524;12.052;2022-10-01T05:46:34;5.05;;;2.70;;
56943;SDS011;42848;42.524;12.052;2022-10-01T05:48:59;4.95;;;2.65;;
56943;SDS011;42848;42.524;12.052;2022-10-01T05:51:26;4.07;;;2.40;;
56943;SDS011;42848;42.524;12.052;2022-10-01T05:53:55;4.82;;;2.60;;
56943;SDS011;42848;42.524;12.052;2022-10-01T05:56:23;5.90;;;2.60;;
56943;SDS011;42848;42.524;12.052;2022-10-01T05:58:50;4.78;;;2.40;;
56943;SDS011;42848;42.524;12.052;2022-10-01T06:01:15;5.53;;;2.50;;
56943;SDS011;42848;42.524;12.052;2022-10-01T06:03:41;4.53;;;2.53;;
56943;SDS011;42848;42.524;12.052;2022-10-01T06:06:08;5.43;;;2.60;;
56943;SDS011;42848;42.524;12.052;2022-10-01T06:08:34;5.10;;;2.80;;
56943;SDS011;42848;42.524;12.052;2022-10-01T06:11:03;5.50;;;2.80;;
56943;SDS011;42848;42.524;12.052;2022-10-01T06:13:34;7.10;;;3.58;;
56943;SDS011;42848;42.524;12.052;2022-10-01T06:16:00;6.63;;;3.30;;
56943;SDS011;42848;42.524;12.052;2022-10-01T06:18:25;4.43;;;2.70;;
56943;SDS011;42848;42.524;12.052;2022-10-01T06:20:51;4.15;;;1.77;;
56943;SDS011;42848;42.524;12.052;2022-10-01T06:23:17;4.88;;;2.63;;
56943;SDS011;42848;42.524;12.052;2022-10-01T06:25:42;4.53;;;2.40;;
56943;SDS011;42848;42.524;12.052;2022-10-01T06:28:09;4.70;;;2.67;;
56943;SDS011;42848;42.524;12.052;2022-10-01T06:30:37;3.78;;;2.28;;
56943;SDS011;42848;42.524;12.052;2022-10-01T06:35:30;5.78;;;2.67;;
56943;SDS011;42848;42.524;12.052;2022-10-01T06:37:57;4.13;;;2.55;;
56943;SDS011;42848;42.524;12.052;2022-10-01T06:40:23;4.35;;;2.20;;
56943;SDS011;42848;42.524;12.052;2022-10-01T06:42:49;4.30;;;2.50;;
56943;SDS011;42848;42.524;12.052;2022-10-01T06:45:18;3.95;;;1.80;;
56943;SDS011;42848;42.524;12.052;2022-10-01T06:47:44;4.57;;;2.15;;
56943;SDS011;42848;42.524;12.052;2022-10-01T06:50:09;3.97;;;2.00;;
56943;SDS011;42848;42.524;12.052;2022-10-01T06:52:35;4.40;;;2.30;;
56943;SDS011;42848;42.524;12.052;2022-10-01T06:55:35;5.72;;;2.40;;
56943;SDS011;42848;42.524;12.052;2022-10-01T06:58:02;4.75;;;2.00;;
56943;SDS011;42848;42.524;12.052;2022-10-01T07:00:30;4.78;;;1.90;;
56943;SDS011;42848;42.524;12.052;2022-10-01T07:02:59;4.35;;;2.00;;
56943;SDS011;42848;42.524;12.052;2022-10-01T07:05:25;5.32;;;3.58;;
56943;SDS011;42848;42.524;12.052;2022-10-01T07:07:51;6.47;;;2.42;;
56943;SDS011;42848;42.524;12.052;2022-10-01T07:10:18;7.15;;;3.25;;
56943;SDS011;42848;42.524;12.052;2022-10-01T07:12:46;5.20;;;2.83;;
56943;SDS011;42848;42.524;12.052;2022-10-01T07:15:19;5.20;;;3.08;;
56943;SDS011;42848;42.524;12.052;2022-10-01T07:17:50;4.68;;;2.85;;
56943;SDS011;42848;42.524;12.052;2022-10-01T07:20:19;5.20;;;3.10;;
56943;SDS011;42848;42.524;12.052;2022-10-01T07:22:46;35.78;;;23.17;;
56943;SDS011;42848;42.524;12.052;2022-10-01T07:25:12;12.07;;;7.93;;
56943;SDS011;42848;42.524;12.052;2022-10-01T07:27:39;11.18;;;5.82;;
56943;SDS011;42848;42.524;12.052;2022-10-01T07:30:05;9.00;;;4.95;;
56943;SDS011;42848;42.524;12.052;2022-10-01T07:32:32;8.85;;;6.03;;
56943;SDS011;42848;42.524;12.052;2022-10-01T07:34:59;7.80;;;3.72;;
56943;SDS011;42848;42.524;12.052;2022-10-01T07:37:25;6.03;;;3.55;;
56943;SDS011;42848;42.524;12.052;2022-10-01T07:39:51;6.15;;;3.35;;
56943;SDS011;42848;42.524;12.052;2022-10-01T07:42:17;5.63;;;3.33;;
56943;SDS011;42848;42.524;12.052;2022-10-01T07:44:42;6.53;;;2.70;;
56943;SDS011;42848;42.524;12.052;2022-10-01T07:47:08;6.00;;;2.13;;
56943;SDS011;42848;42.524;12.052;2022-10-01T07:49:34;3.42;;;1.90;;
56943;SDS011;42848;42.524;12.052;2022-10-01T07:51:59;4.30;;;2.35;;
56943;SDS011;42848;42.524;12.052;2022-10-01T07:54:25;2.92;;;1.90;;
56943;SDS011;42848;42.524;12.052;2022-10-01T07:56:51;3.33;;;1.85;;
56943;SDS011;42848;42.524;12.052;2022-10-01T07:59:22;3.10;;;1.60;;
56943;SDS011;42848;42.524;12.052;2022-10-01T08:01:51;4.40;;;1.70;;
56943;SDS011;42848;42.524;12.052;2022-10-01T08:04:18;3.03;;;1.80;;
56943;SDS011;42848;42.524;12.052;2022-10-01T08:07:03;3.88;;;1.80;;
56943;SDS011;42848;42.524;12.052;2022-10-01T08:09:29;3.10;;;2.20;;
56943;SDS011;42848;42.524;12.052;2022-10-01T08:11:55;4.50;;;2.92;;
56943;SDS011;42848;42.524;12.052;2022-10-01T08:14:21;3.47;;;2.08;;
56943;SDS011;42848;42.524;12.052;2022-10-01T08:16:47;3.60;;;1.90;;
56943;SDS011;42848;42.524;12.052;2022-10-01T08:19:13;4.57;;;1.80;;
56943;SDS011;42848;42.524;12.052;2022-10-01T08:21:40;2.70;;;1.60;;
56943;SDS011;42848;42.524;12.052;2022-10-01T08:24:06;3.30;;;1.73;;
56943;SDS011;42848;42.524;12.052;2022-10-01T08:26:32;2.95;;;1.67;;
56943;SDS011;42848;42.524;12.052;2022-10-01T08:28:58;4.75;;;1.60;;
56943;SDS011;42848;42.524;12.052;2022-10-01T08:31:24;2.75;;;1.63;;
56943;SDS011;42848;42.524;12.052;2022-10-01T08:33:50;4.88;;;1.80;;
56943;SDS011;42848;42.524;12.052;2022-10-01T08:36:17;3.25;;;2.08;;
56943;SDS011;42848;42.524;12.052;2022-10-01T08:38:44;3.90;;;1.80;;
56943;SDS011;42848;42.524;12.052;2022-10-01T08:41:35;3.40;;;1.60;;
56943;SDS011;42848;42.524;12.052;2022-10-01T08:44:18;3.03;;;1.70;;
56943;SDS011;42848;42.524;12.052;2022-10-01T08:46:48;2.15;;;1.38;;
56943;SDS011;42848;42.524;12.052;2022-10-01T08:49:26;3.28;;;1.55;;
56943;SDS011;42848;42.524;12.052;2022-10-01T08:52:29;3.50;;;1.75;;
56943;SDS011;42848;42.524;12.052;2022-10-01T08:55:05;3.08;;;1.60;;
56943;SDS011;42848;42.524;12.052;2022-10-01T08:57:38;4.50;;;1.90;;
56943;SDS011;42848;42.524;12.052;2022-10-01T09:00:14;2.60;;;1.70;;
56943;SDS011;42848;42.524;12.052;2022-10-01T09:02:42;2.22;;;1.42;;
56943;SDS011;42848;42.524;12.052;2022-10-01T09:05:15;2.63;;;1.60;;
56943;SDS011;42848;42.524;12.052;2022-10-01T09:24:59;3.22;;;1.13;;
56943;SDS011;42848;42.524;12.052;2022-10-01T09:27:44;2.28;;;1.25;;
56943;SDS011;42848;42.524;12.052;2022-10-01T09:32:48;2.63;;;1.20;;
56943;SDS011;42848;42.524;12.052;2022-10-01T09:35:25;3.70;;;1.60;;
56943;SDS011;42848;42.524;12.052;2022-10-01T09:37:55;2.20;;;1.20;;
56943;SDS011;42848;42.524;12.052;2022-10-01T09:40:33;2.25;;;1.10;;
56943;SDS011;42848;42.524;12.052;2022-10-01T09:43:02;2.00;;;0.75;;
56943;SDS011;42848;42.524;12.052;2022-10-01T09:45:32;1.77;;;1.20;;
56943;SDS011;42848;42.524;12.052;2022-10-01T09:48:02;2.85;;;0.90;;
56943;SDS011;42848;42.524;12.052;2022-10-01T09:50:39;1.70;;;0.90;;
56943;SDS011;42848;42.524;12.052;2022-10-01T09:53:17;2.25;;;0.93;;
56943;SDS011;42848;42.524;12.052;2022-10-01T09:55:50;4.00;;;1.10;;
56943;SDS011;42848;42.524;12.052;2022-10-01T09:58:22;2.17;;;0.90;;
56943;SDS011;42848;42.524;12.052;2022-10-01T10:00:51;2.60;;;0.95;;
56943;SDS011;42848;42.524;12.052;2022-10-01T10:03:26;2.13;;;0.88;;
56943;SDS011;42848;42.524;12.052;2022-10-01T10:05:54;3.55;;;0.80;;
56943;SDS011;42848;42.524;12.052;2022-10-01T10:08:33;1.60;;;0.68;;
56943;SDS011;42848;42.524;12.052;2022-10-01T10:11:04;1.80;;;0.60;;
56943;SDS011;42848;42.524;12.052;2022-10-01T10:13:33;1.63;;;0.63;;
56943;SDS011;42848;42.524;12.052;2022-10-01T10:19:34;1.58;;;0.90;;
56943;SDS011;42848;42.524;12.052;2022-10-01T10:21:50;2.10;;;0.80;;
56943;SDS011;42848;42.524;12.052;2022-10-01T10:24:30;2.10;;;0.90;;
56943;SDS011;42848;42.524;12.052;2022-10-01T10:26:58;1.55;;;0.80;;
56943;SDS011;42848;42.524;12.052;2022-10-01T10:32:02;2.27;;;0.63;;
56943;SDS011;42848;42.524;12.052;2022-10-01T10:34:38;2.15;;;0.68;;
56943;SDS011;42848;42.524;12.052;2022-10-01T10:37:14;2.08;;;0.70;;
56943;SDS011;42848;42.524;12.052;2022-10-01T10:39:44;1.98;;;0.60;;
56943;SDS011;42848;42.524;12.052;2022-10-01T10:42:16;4.30;;;0.80;;
56943;SDS011;42848;42.524;12.052;2022-10-01T10:44:47;1.48;;;0.52;;
56943;SDS011;42848;42.524;12.052;2022-10-01T10:47:14;1.15;;;0.60;;
56943;SDS011;42848;42.524;12.052;2022-10-01T10:52:20;1.65;;;0.60;;
56943;SDS011;42848;42.524;12.052;2022-10-01T10:54:49;1.98;;;0.68;;
56943;SDS011;42848;42.524;12.052;2022-10-01T10:57:20;1.98;;;0.73;;
56943;SDS011;42848;42.524;12.052;2022-10-01T10:59:58;0.90;;;0.50;;
56943;SDS011;42848;42.524;12.052;2022-10-01T11:02:27;1.70;;;0.60;;
56943;SDS011;42848;42.524;12.052;2022-10-01T11:04:54;1.73;;;0.70;;
56943;SDS011;42848;42.524;12.052;2022-10-01T11:07:47;1.63;;;0.60;;
56943;SDS011;42848;42.524;12.052;2022-10-01T11:18:37;1.20;;;0.52;;
56943;SDS011;42848;42.524;12.052;2022-10-01T11:26:51;2.00;;;0.70;;
56943;SDS011;42848;42.524;12.052;2022-10-01T11:29:25;1.25;;;0.50;;
56943;SDS011;42848;42.524;12.052;2022-10-01T11:32:15;1.48;;;0.60;;
56943;SDS011;42848;42.524;12.052;2022-10-01T11:40:54;2.58;;;0.95;;
56943;SDS011;42848;42.524;12.052;2022-10-01T11:43:32;1.73;;;0.70;;
56943;SDS011;42848;42.524;12.052;2022-10-01T11:46:06;1.65;;;0.60;;
56943;SDS011;42848;42.524;12.052;2022-10-01T11:48:37;2.50;;;0.60;;
56943;SDS011;42848;42.524;12.052;2022-10-01T11:51:14;2.17;;;0.70;;
56943;SDS011;42848;42.524;12.052;2022-10-01T11:53:52;1.40;;;0.60;;
56943;SDS011;42848;42.524;12.052;2022-10-01T11:56:28;3.47;;;0.70;;
56943;SDS011;42848;42.524;12.052;2022-10-01T12:04:33;1.42;;;0.60;;
56943;SDS011;42848;42.524;12.052;2022-10-01T12:12:28;1.25;;;0.60;;
56943;SDS011;42848;42.524;12.052;2022-10-01T12:15:03;4.15;;;0.90;;
56943;SDS011;42848;42.524;12.052;2022-10-01T12:20:19;2.42;;;0.65;;
56943;SDS011;42848;42.524;12.052;2022-10-01T12:22:52;1.20;;;0.60;;
56943;SDS011;42848;42.524;12.052;2022-10-01T12:25:19;3.28;;;1.08;;
56943;SDS011;42848;42.524;12.052;2022-10-01T12:30:20;2.30;;;0.80;;
56943;SDS011;42848;42.524;12.052;2022-10-01T12:40:45;2.67;;;0.80;;
56943;SDS011;42848;42.524;12.052;2022-10-01T12:51:52;3.05;;;0.80;;
56943;SDS011;42848;42.524;12.052;2022-10-01T13:00:20;3.05;;;2.08;;
56943;SDS011;42848;42.524;12.052;2022-10-01T13:08:37;2.78;;;1.38;;
56943;SDS011;42848;42.524;12.052;2022-10-01T13:14:03;2.08;;;0.85;;
56943;SDS011;42848;42.524;12.052;2022-10-01T13:19:36;2.00;;;0.90;;
56943;SDS011;42848;42.524;12.052;2022-10-01T13:24:59;4.07;;;1.08;;
56943;SDS011;42848;42.524;12.052;2022-10-01T13:27:42;2.20;;;1.00;;
56943;SDS011;42848;42.524;12.052;2022-10-01T13:30:22;2.95;;;1.75;;
56943;SDS011;42848;42.524;12.052;2022-10-01T13:32:52;6.63;;;5.15;;
56943;SDS011;42848;42.524;12.052;2022-10-01T13:37:49;2.80;;;1.58;;
56943;SDS011;42848;42.524;12.052;2022-10-01T13:40:23;2.08;;;1.13;;
56943;SDS011;42848;42.524;12.052;2022-10-01T13:43:01;2.67;;;1.20;;
56943;SDS011;42848;42.524;12.052;2022-10-01T13:45:43;3.85;;;1.02;;
56943;SDS011;42848;42.524;12.052;2022-10-01T13:48:12;1.88;;;1.10;;
56943;SDS011;42848;42.524;12.052;2022-10-01T13:50:39;1.95;;;0.80;;
56943;SDS011;42848;42.524;12.052;2022-10-01T13:53:19;2.85;;;0.93;;
56943;SDS011;42848;42.524;12.052;2022-10-01T13:55:48;2.65;;;0.80;;
56943;SDS011;42848;42.524;12.052;2022-10-01T13:58:30;1.85;;;1.10;;
56943;SDS011;42848;42.524;12.052;2022-10-01T14:07:10;2.10;;;0.80;;
56943;SDS011;42848;42.524;12.052;2022-10-01T14:09:49;3.95;;;2.53;;
56943;SDS011;42848;42.524;12.052;2022-10-01T14:12:20;2.90;;;1.10;;
56943;SDS011;42848;42.524;12.052;2022-10-01T14:15:18;3.10;;;1.50;;
56943;SDS011;42848;42.524;12.052;2022-10-01T14:18:12;1.92;;;0.70;;
56943;SDS011;42848;42.524;12.052;2022-10-01T14:23:32;1.98;;;0.98;;
56943;SDS011;42848;42.524;12.052;2022-10-01T14:29:36;1.25;;;0.70;;
56943;SDS011;42848;42.524;12.052;2022-10-01T14:38:02;1.95;;;0.63;;
56943;SDS011;42848;42.524;12.052;2022-10-01T14:40:38;1.38;;;0.80;;
56943;SDS011;42848;42.524;12.052;2022-10-01T14:43:39;2.08;;;0.85;;
56943;SDS011;42848;42.524;12.052;2022-10-01T14:48:30;2.97;;;1.58;;
56943;SDS011;42848;42.524;12.052;2022-10-01T14:51:01;2.22;;;0.80;;
56943;SDS011;42848;42.524;12.052;2022-10-01T14:53:35;2.30;;;1.00;;
56943;SDS011;42848;42.524;12.052;2022-10-01T14:56:07;2.15;;;0.80;;
56943;SDS011;42848;42.524;12.052;2022-10-01T14:58:46;3.65;;;1.30;;
56943;SDS011;42848;42.524;12.052;2022-10-01T15:01:18;4.88;;;1.33;;
56943;SDS011;42848;42.524;12.052;2022-10-01T15:03:45;3.28;;;1.50;;
56943;SDS011;42848;42.524;12.052;2022-10-01T15:06:13;2.13;;;1.10;;
56943;SDS011;42848;42.524;12.052;2022-10-01T15:08:41;2.97;;;0.70;;
56943;SDS011;42848;42.524;12.052;2022-10-01T15:13:53;1.63;;;0.70;;
56943;SDS011;42848;42.524;12.052;2022-10-01T15:16:26;3.05;;;0.80;;
56943;SDS011;42848;42.524;12.052;2022-10-01T15:18:57;2.92;;;0.70;;
56943;SDS011;42848;42.524;12.052;2022-10-01T15:23:56;3.22;;;0.85;;
56943;SDS011;42848;42.524;12.052;2022-10-01T15:26:23;3.55;;;0.90;;
56943;SDS011;42848;42.524;12.052;2022-10-01T15:29:04;1.35;;;0.70;;
56943;SDS011;42848;42.524;12.052;2022-10-01T15:31:35;2.45;;;0.60;;
56943;SDS011;42848;42.524;12.052;2022-10-01T15:34:02;1.70;;;0.60;;
56943;SDS011;42848;42.524;12.052;2022-10-01T15:36:30;3.10;;;0.60;;
56943;SDS011;42848;42.524;12.052;2022-10-01T15:38:56;1.48;;;0.60;;
56943;SDS011;42848;42.524;12.052;2022-10-01T15:41:26;2.90;;;0.77;;
56943;SDS011;42848;42.524;12.052;2022-10-01T15:44:04;3.40;;;1.05;;
56943;SDS011;42848;42.524;12.052;2022-10-01T15:46:30;1.17;;;0.60;;
56943;SDS011;42848;42.524;12.052;2022-10-01T15:52:21;1.30;;;0.60;;
56943;SDS011;42848;42.524;12.052;2022-10-01T15:54:47;1.70;;;0.60;;
56943;SDS011;42848;42.524;12.052;2022-10-01T15:57:22;1.52;;;0.60;;
56943;SDS011;42848;42.524;12.052;2022-10-01T15:59:52;1.90;;;0.70;;
56943;SDS011;42848;42.524;12.052;2022-10-01T16:02:21;4.88;;;0.75;;
56943;SDS011;42848;42.524;12.052;2022-10-01T16:04:51;2.88;;;0.60;;
56943;SDS011;42848;42.524;12.052;2022-10-01T16:07:29;1.65;;;0.60;;
56943;SDS011;42848;42.524;12.052;2022-10-01T16:09:59;2.00;;;0.60;;
56943;SDS011;42848;42.524;12.052;2022-10-01T16:12:38;1.77;;;0.60;;
56943;SDS011;42848;42.524;12.052;2022-10-01T16:15:05;1.42;;;0.63;;
56943;SDS011;42848;42.524;12.052;2022-10-01T16:17:53;1.73;;;0.60;;
56943;SDS011;42848;42.524;12.052;2022-10-01T16:20:40;3.15;;;0.70;;
56943;SDS011;42848;42.524;12.052;2022-10-01T16:26:47;1.67;;;0.70;;
56943;SDS011;42848;42.524;12.052;2022-10-01T16:31:36;1.85;;;0.70;;
56943;SDS011;42848;42.524;12.052;2022-10-01T16:34:15;1.77;;;0.77;;
56943;SDS011;42848;42.524;12.052;2022-10-01T16:36:42;3.50;;;0.90;;
56943;SDS011;42848;42.524;12.052;2022-10-01T16:39:08;2.03;;;0.90;;
56943;SDS011;42848;42.524;12.052;2022-10-01T16:41:37;3.17;;;1.02;;
56943;SDS011;42848;42.524;12.052;2022-10-01T16:44:04;3.33;;;0.80;;
56943;SDS011;42848;42.524;12.052;2022-10-01T16:46:30;2.00;;;0.80;;
56943;SDS011;42848;42.524;12.052;2022-10-01T16:48:57;2.00;;;0.80;;
56943;SDS011;42848;42.524;12.052;2022-10-01T16:51:23;1.83;;;0.70;;
56943;SDS011;42848;42.524;12.052;2022-10-01T16:53:49;2.95;;;1.00;;
56943;SDS011;42848;42.524;12.052;2022-10-01T16:56:15;4.05;;;0.75;;
56943;SDS011;42848;42.524;12.052;2022-10-01T16:58:41;2.67;;;0.77;;
56943;SDS011;42848;42.524;12.052;2022-10-01T17:01:12;2.67;;;0.82;;
56943;SDS011;42848;42.524;12.052;2022-10-01T17:03:39;2.63;;;0.90;;
56943;SDS011;42848;42.524;12.052;2022-10-01T17:06:04;2.17;;;0.80;;
56943;SDS011;42848;42.524;12.052;2022-10-01T17:08:31;1.35;;;0.70;;
56943;SDS011;42848;42.524;12.052;2022-10-01T17:10:58;5.30;;;0.90;;
56943;SDS011;42848;42.524;12.052;2022-10-01T17:13:29;4.22;;;0.90;;
56943;SDS011;42848;42.524;12.052;2022-10-01T17:15:59;4.22;;;1.25;;
56943;SDS011;42848;42.524;12.052;2022-10-01T17:18:25;3.13;;;2.05;;
56943;SDS011;42848;42.524;12.052;2022-10-01T17:20:51;2.90;;;1.23;;
56943;SDS011;42848;42.524;12.052;2022-10-01T17:23:17;3.30;;;1.50;;
56943;SDS011;42848;42.524;12.052;2022-10-01T17:25:46;4.68;;;1.52;;
56943;SDS011;42848;42.524;12.052;2022-10-01T17:28:14;2.97;;;1.45;;